Time;durP1;ratioP1;P1;durP2;ratioP2;P2;SDS_P1;SDS_P2;PMS_P1;PMS_P2;Temp;Humidity;BMP_temperature;BMP_pressure;BME280_temperature;BME280_humidity;BME280_pressure;Samples;Min_cycle;Max_cycle;Signal;HPM_P1;HPM_P2
2022/07/22 00:01:07;;;;;;;14.02;5.20;;;23.30;98.60;;;;;;5051473;28;20048;-72
2022/07/22 00:03:33;;;;;;;11.05;4.85;;;23.30;98.70;;;;;;5053258;28;20064;-73
2022/07/22 00:05:59;;;;;;;9.43;5.38;;;23.30;98.70;;;;;;5052840;28;20028;-73
2022/07/22 00:08:25;;;;;;;10.50;5.22;;;23.20;98.70;;;;;;5053070;28;20028;-73
2022/07/22 00:10:51;;;;;;;11.13;5.55;;;23.20;98.90;;;;;;5052707;28;20032;-73
2022/07/22 00:13:17;;;;;;;11.75;5.50;;;23.20;98.90;;;;;;5052583;28;20021;-73
2022/07/22 00:15:43;;;;;;;12.30;5.85;;;23.10;98.90;;;;;;5052589;28;20035;-73
2022/07/22 00:18:09;;;;;;;8.27;4.72;;;23.10;99.10;;;;;;5052727;28;20017;-71
2022/07/22 00:20:35;;;;;;;10.15;4.78;;;23.00;99.20;;;;;;5052798;28;20013;-72
2022/07/22 00:23:01;;;;;;;13.07;5.63;;;22.90;99.10;;;;;;5051890;28;20383;-71
2022/07/22 00:25:28;;;;;;;10.05;5.45;;;22.90;99.40;;;;;;5038881;28;20021;-71
2022/07/22 00:27:54;;;;;;;11.35;5.55;;;22.80;99.50;;;;;;5031526;28;20100;-71
2022/07/22 00:30:21;;;;;;;14.05;5.43;;;22.80;99.50;;;;;;5035123;28;20109;-72
2022/07/22 00:32:47;;;;;;;15.55;5.78;;;22.80;99.60;;;;;;5031375;28;20033;-72
2022/07/22 00:35:13;;;;;;;9.57;4.70;;;22.80;99.50;;;;;;5014907;28;20152;-72
2022/07/22 00:37:39;;;;;;;12.35;4.90;;;22.60;99.80;;;;;;5013748;28;20116;-72
2022/07/22 00:40:06;;;;;;;15.90;5.20;;;22.60;99.90;;;;;;5031084;28;20021;-72
2022/07/22 00:42:34;;;;;;;10.07;5.07;;;;;;;;;;5013256;28;20484;-73
2022/07/22 00:45:00;;;;;;;10.20;4.40;;;22.50;99.90;;;;;;5030306;28;20017;-72
2022/07/22 00:47:26;;;;;;;9.35;5.05;;;22.50;99.90;;;;;;5013587;28;20025;-72
2022/07/22 00:49:52;;;;;;;8.77;4.53;;;22.50;99.90;;;;;;5031003;28;20549;-72
2022/07/22 00:52:22;;;;;;;8.32;4.43;;;22.50;99.70;;;;;;5030945;28;20443;-72
2022/07/22 00:54:48;;;;;;;8.73;4.75;;;22.40;99.90;;;;;;5018692;28;20026;-72
2022/07/22 00:57:14;;;;;;;12.10;4.63;;;22.50;99.80;;;;;;5030992;28;20100;-73
2022/07/22 00:59:40;;;;;;;9.45;4.90;;;22.40;99.40;;;;;;5013137;28;20117;-73
2022/07/22 01:02:08;;;;;;;10.48;4.88;;;22.50;99.40;;;;;;5030818;28;20045;-73
2022/07/22 01:04:34;;;;;;;9.60;5.47;;;22.50;99.30;;;;;;5030845;28;20029;-72
2022/07/22 01:07:00;;;;;;;12.02;5.38;;;22.50;99.40;;;;;;5028954;28;21160;-73
2022/07/22 01:09:26;;;;;;;11.57;5.45;;;22.50;99.50;;;;;;5012930;28;20383;-73
2022/07/22 01:11:52;;;;;;;7.40;5.00;;;22.50;99.40;;;;;;5028878;28;20040;-73
2022/07/22 01:14:18;;;;;;;8.98;4.70;;;22.50;99.60;;;;;;5031001;28;20083;-74
2022/07/22 01:16:44;;;;;;;11.25;5.53;;;22.50;99.70;;;;;;5030947;28;20535;-74
2022/07/22 01:19:10;;;;;;;13.68;5.03;;;22.50;99.70;;;;;;5018783;28;20079;-73
2022/07/22 01:21:36;;;;;;;9.52;5.15;;;22.50;99.90;;;;;;5012936;28;20056;-73
2022/07/22 01:24:03;;;;;;;10.30;4.50;;;;;;;;;;5013063;28;20030;-73
2022/07/22 01:26:30;;;;;;;11.95;5.55;;;22.30;99.90;;;;;;5029480;28;20112;-72
2022/07/22 01:28:56;;;;;;;7.57;4.93;;;22.30;99.90;;;;;;5029429;28;20044;-73
2022/07/22 01:31:22;;;;;;;9.68;4.50;;;22.30;99.90;;;;;;5012967;28;20468;-73
2022/07/22 01:33:48;;;;;;;8.63;4.53;;;22.30;99.90;;;;;;5030694;28;20022;-73
2022/07/22 01:36:14;;;;;;;15.88;5.28;;;22.30;99.90;;;;;;5028960;28;20455;-72
2022/07/22 01:38:41;;;;;;;12.30;5.20;;;22.30;99.90;;;;;;5012995;28;20037;-73
2022/07/22 01:41:07;;;;;;;9.68;4.97;;;22.30;99.90;;;;;;5030483;28;20034;-73
2022/07/22 01:43:34;;;;;;;8.43;4.70;;;22.20;99.90;;;;;;5029217;28;20491;-72
2022/07/22 01:46:00;;;;;;;15.00;4.85;;;22.10;99.90;;;;;;5012924;28;20087;-73
2022/07/22 01:48:26;;;;;;;12.15;5.45;;;22.10;99.90;;;;;;5012974;28;20030;-73
2022/07/22 01:50:53;;;;;;;11.85;4.85;;;22.20;99.90;;;;;;5029201;28;20034;-74
2022/07/22 01:53:19;;;;;;;8.80;4.80;;;22.10;99.90;;;;;;5012997;28;20021;-73
2022/07/22 01:55:46;;;;;;;7.82;4.28;;;22.00;99.90;;;;;;5033640;28;20032;-74
2022/07/22 01:58:14;;;;;;;9.30;4.60;;;22.00;99.90;;;;;;5055481;28;20052;-74
2022/07/22 02:00:42;;;;;;;14.00;5.70;;;22.00;99.90;;;;;;5037688;28;20025;-73
2022/07/22 02:03:10;;;;;;;10.30;5.10;;;22.00;99.90;;;;;;5055309;28;20053;-74
2022/07/22 02:05:36;;;;;;;9.82;5.13;;;22.00;99.90;;;;;;5055405;28;20087;-74
2022/07/22 02:08:12;;;;;;;15.32;4.88;;;21.90;99.90;;;;;;5037803;28;20435;-74
2022/07/22 02:10:58;;;;;;;12.75;4.88;;;22.00;99.90;;;;;;5013291;28;20069;-75
2022/07/22 02:13:24;;;;;;;9.75;4.60;;;22.00;99.90;;;;;;5013272;28;20132;-74
2022/07/22 02:15:51;;;;;;;10.55;5.38;;;21.90;99.90;;;;;;5013463;28;20109;-74
2022/07/22 02:18:18;;;;;;;13.15;5.00;;;21.90;99.90;;;;;;5013373;28;20034;-73
2022/07/22 02:20:45;;;;;;;10.85;4.57;;;21.90;99.90;;;;;;5013203;28;20022;-74
2022/07/22 02:23:11;;;;;;;9.38;5.07;;;21.90;99.90;;;;;;5013261;28;20048;-73
2022/07/22 02:25:39;;;;;;;8.43;4.82;;;21.90;99.90;;;;;;5012695;28;20475;-73
2022/07/22 02:28:05;;;;;;;11.80;5.68;;;21.90;99.90;;;;;;5012828;28;20595;-73
2022/07/22 02:30:32;;;;;;;10.10;4.85;;;21.90;99.90;;;;;;5012845;28;20034;-74
2022/07/22 02:32:59;;;;;;;11.68;5.30;;;21.80;99.90;;;;;;5018861;28;20041;-74
2022/07/22 02:35:25;;;;;;;9.73;4.13;;;21.90;99.90;;;;;;5012459;28;20045;-74
2022/07/22 02:37:51;;;;;;;10.82;4.28;;;21.90;99.90;;;;;;4995983;28;20497;-73
2022/07/22 02:40:17;;;;;;;7.40;4.45;;;21.90;99.90;;;;;;5000217;28;20061;-73
2022/07/22 02:42:44;;;;;;;14.90;5.20;;;21.80;99.90;;;;;;5012130;28;20038;-74
2022/07/22 02:45:10;;;;;;;10.35;4.88;;;21.90;99.90;;;;;;5012570;28;20515;-74
2022/07/22 02:47:54;;;;;;;12.20;4.93;;;21.80;99.90;;;;;;5020312;28;20032;-73
2022/07/22 02:50:22;;;;;;;11.75;5.25;;;21.80;99.40;;;;;;5037887;28;20029;-74
2022/07/22 02:52:48;;;;;;;21.27;5.20;;;21.80;99.50;;;;;;5049234;28;20036;-72
2022/07/22 02:55:16;;;;;;;11.88;5.45;;;21.80;99.50;;;;;;5039679;28;20108;-74
2022/07/22 02:57:42;;;;;;;11.07;5.30;;;21.70;99.30;;;;;;5037426;28;20052;-73
2022/07/22 03:00:11;;;;;;;10.30;4.97;;;21.80;99.30;;;;;;5058882;28;20398;-74
2022/07/22 03:02:37;;;;;;;12.00;4.65;;;21.70;98.90;;;;;;5058668;28;20056;-74
2022/07/22 03:05:05;;;;;;;9.27;4.65;;;21.80;99.00;;;;;;5046058;28;20028;-75
2022/07/22 03:07:32;;;;;;;10.52;5.03;;;21.80;98.60;;;;;;5037186;28;20029;-74
2022/07/22 03:09:59;;;;;;;9.13;4.43;;;21.80;99.30;;;;;;5037626;28;20021;-74
2022/07/22 03:12:25;;;;;;;9.52;4.85;;;21.70;99.20;;;;;;5040147;28;20028;-72
2022/07/22 03:14:52;;;;;;;12.57;5.00;;;21.70;99.20;;;;;;5038859;28;20468;-72
2022/07/22 03:17:19;;;;;;;12.02;5.30;;;21.70;99.70;;;;;;5037174;28;20082;-74
2022/07/22 03:19:45;;;;;;;11.98;5.70;;;21.60;99.70;;;;;;5036132;28;20451;-73
2022/07/22 03:22:10;;;;;;;10.75;5.80;;;21.60;99.30;;;;;;5036826;28;20148;-73
2022/07/22 03:24:36;;;;;;;13.35;6.45;;;21.60;99.30;;;;;;5056365;28;20032;-73
2022/07/22 03:27:02;;;;;;;11.63;5.32;;;21.60;99.10;;;;;;5066250;28;20157;-74
2022/07/22 03:29:30;;;;;;;10.95;4.78;;;21.70;99.00;;;;;;5046127;28;20171;-74
2022/07/22 03:31:56;;;;;;;14.48;6.18;;;21.90;99.20;;;;;;5035277;28;20076;-73
2022/07/22 03:34:37;;;;;;;11.75;5.57;;;21.90;98.90;;;;;;5044470;28;20470;-73
2022/07/22 03:37:06;;;;;;;10.95;5.55;;;22.00;99.00;;;;;;5040067;28;20035;-73
2022/07/22 03:39:32;;;;;;;13.20;5.70;;;22.10;99.20;;;;;;5043203;28;20021;-74
2022/07/22 03:41:58;;;;;;;14.68;6.00;;;22.10;99.70;;;;;;5039675;28;20041;-73
2022/07/22 03:44:26;;;;;;;18.55;6.53;;;22.10;99.30;;;;;;5036631;28;20025;-74
2022/07/22 03:46:52;;;;;;;17.92;6.55;;;22.20;99.30;;;;;;5046421;28;20029;-72
2022/07/22 03:49:18;;;;;;;19.80;6.70;;;22.60;97.20;;;;;;5034170;28;20029;-74
2022/07/22 03:51:45;;;;;;;18.52;6.72;;;23.00;97.50;;;;;;5035439;28;20041;-72
2022/07/22 03:54:11;;;;;;;29.63;7.30;;;23.40;96.30;;;;;;5043330;28;20107;-73
2022/07/22 03:56:40;;;;;;;18.17;7.00;;;24.00;94.70;;;;;;5044221;28;20029;-73
2022/07/22 03:59:06;;;;;;;28.67;7.88;;;24.50;92.40;;;;;;5035344;28;20021;-73
2022/07/22 04:01:33;;;;;;;22.52;7.72;;;24.80;91.00;;;;;;5035071;28;20049;-73
2022/07/22 04:03:59;;;;;;;20.85;6.78;;;25.40;90.30;;;;;;5041600;28;20471;-74
2022/07/22 04:06:30;;;;;;;17.42;6.15;;;;;;;;;;5059862;28;20032;-73
2022/07/22 04:09:28;;;;;;;17.33;6.80;;;;;;;;;;4990052;28;20494;-73
2022/07/22 04:11:55;;;;;;;13.02;5.45;;;26.40;79.90;;;;;;4973259;28;20049;-73
2022/07/22 04:14:24;;;;;;;16.42;5.60;;;26.80;78.20;;;;;;4986581;28;20038;-73
2022/07/22 04:16:50;;;;;;;14.45;4.97;;;27.30;79.30;;;;;;4991472;28;20445;-73
2022/07/22 04:19:16;;;;;;;12.40;5.38;;;27.80;76.50;;;;;;4990091;28;20030;-73
2022/07/22 04:21:53;;;;;;;17.67;5.97;;;28.00;75.40;;;;;;4990160;28;20126;-73
2022/07/22 04:24:24;;;;;;;19.15;5.53;;;28.80;73.20;;;;;;4974868;28;20091;-72
2022/07/22 04:26:50;;;;;;;16.25;5.90;;;;;;;;;;4972010;28;20039;-73
2022/07/22 04:29:16;;;;;;;10.18;4.90;;;29.40;76.20;;;;;;4980370;28;20026;-73
2022/07/22 04:31:42;;;;;;;10.75;5.10;;;;;;;;;;4973708;28;20501;-74
2022/07/22 04:34:14;;;;;;;17.20;6.70;;;30.20;69.30;;;;;;4971250;28;20501;-74
2022/07/22 04:36:41;;;;;;;13.63;5.68;;;;;;;;;;4985313;28;20030;-72
2022/07/22 04:39:08;;;;;;;11.70;5.65;;;;;;;;;;4972082;28;20038;-73
2022/07/22 04:41:36;;;;;;;14.50;5.10;;;;;;;;;;4990179;28;20026;-72
2022/07/22 04:44:03;;;;;;;14.40;5.78;;;;;;;;;;4992663;28;20026;-72
2022/07/22 04:46:32;;;;;;;11.70;5.15;;;;;;;;;;5035467;28;20029;-73
2022/07/22 04:49:00;;;;;;;9.30;4.75;;;;;;;;;;5035815;28;20024;-73
2022/07/22 04:51:26;;;;;;;11.13;4.80;;;;;;;;;;5035542;28;20036;-72
2022/07/22 04:54:00;;;;;;;8.88;5.32;;;32.80;62.00;;;;;;5041228;28;20066;-74
2022/07/22 04:56:27;;;;;;;10.68;5.32;;;;;;;;;;5036531;28;20075;-73
2022/07/22 04:58:53;;;;;;;10.85;5.32;;;32.90;61.20;;;;;;5038374;28;20020;-73
2022/07/22 05:01:22;;;;;;;10.20;5.10;;;33.00;61.20;;;;;;5026641;28;20499;-73
2022/07/22 05:03:51;;;;;;;14.25;4.63;;;32.90;63.80;;;;;;5041599;28;20032;-72
2022/07/22 05:06:18;;;;;;;14.68;4.85;;;;;;;;;;5036683;28;20040;-73
2022/07/22 05:08:44;;;;;;;10.70;4.50;;;30.20;62.30;;;;;;5040300;28;20058;-73
2022/07/22 05:11:11;;;;;;;10.50;4.38;;;29.90;63.30;;;;;;5057908;28;20028;-73
2022/07/22 05:13:37;;;;;;;12.70;4.60;;;29.50;63.30;;;;;;5018990;28;20036;-73
2022/07/22 05:16:05;;;;;;;14.18;4.82;;;29.30;74.60;;;;;;5052825;28;20430;-73
2022/07/22 05:18:34;;;;;;;20.00;4.88;;;29.20;79.00;;;;;;5060818;28;20024;-73
2022/07/22 05:21:01;;;;;;;10.70;4.72;;;;;;;;;;5039352;28;20020;-64
2022/07/22 05:23:27;;;;;;;9.77;4.60;;;;;;;;;;5057991;28;20029;-72
2022/07/22 05:25:56;;;;;;;13.88;4.75;;;;;;;;;;5040988;28;20115;-71
2022/07/22 05:28:22;;;;;;;9.57;4.25;;;28.90;92.90;;;;;;5032840;28;20029;-73
2022/07/22 05:30:49;;;;;;;11.68;4.82;;;;;;;;;;5038640;28;20556;-65
2022/07/22 05:33:15;;;;;;;13.88;4.57;;;;;;;;;;5045966;28;20479;-72
2022/07/22 05:36:04;;;;;;;9.75;4.13;;;;;;;;;;5044533;28;20560;-64
2022/07/22 05:38:36;;;;;;;8.75;4.05;;;27.80;90.00;;;;;;5037980;28;20025;-65
2022/07/22 05:41:02;;;;;;;12.57;5.05;;;27.80;83.70;;;;;;5038066;28;20025;-63
2022/07/22 05:43:28;;;;;;;11.18;5.03;;;28.00;82.90;;;;;;5056740;28;20047;-66
2022/07/22 05:45:55;;;;;;;8.60;3.92;;;28.00;81.90;;;;;;5049998;28;20539;-63
2022/07/22 05:48:21;;;;;;;9.57;4.15;;;28.10;83.20;;;;;;5038689;28;20027;-72
2022/07/22 05:50:47;;;;;;;9.75;4.15;;;28.10;81.80;;;;;;5047973;28;20071;-72
2022/07/22 05:53:13;;;;;;;7.65;3.67;;;28.00;82.80;;;;;;5043507;28;20021;-73
2022/07/22 05:55:40;;;;;;;8.10;4.25;;;28.10;82.10;;;;;;5042739;28;20079;-72
2022/07/22 05:58:07;;;;;;;13.38;4.05;;;28.10;81.90;;;;;;5037540;28;20536;-73
2022/07/22 06:00:33;;;;;;;16.42;4.85;;;28.30;83.60;;;;;;5037440;28;20033;-72
2022/07/22 06:03:00;;;;;;;6.78;3.95;;;28.40;82.50;;;;;;5039127;28;20450;-73
2022/07/22 06:05:26;;;;;;;18.92;5.03;;;28.40;85.10;;;;;;5047103;28;20029;-71
2022/07/22 06:07:53;;;;;;;8.05;4.03;;;28.50;90.10;;;;;;5048143;28;20123;-73
2022/07/22 06:10:35;;;;;;;10.13;4.25;;;28.40;89.20;;;;;;5048016;28;20029;-71
2022/07/22 06:13:01;;;;;;;6.47;4.25;;;28.50;89.30;;;;;;5058974;28;20463;-72
2022/07/22 06:15:26;;;;;;;7.38;3.95;;;28.60;67.00;;;;;;5049294;28;20115;-72
2022/07/22 06:17:53;;;;;;;26.55;4.63;;;28.50;66.60;;;;;;5046087;28;20410;-73
2022/07/22 06:20:19;;;;;;;5.97;3.30;;;28.50;67.20;;;;;;5044384;28;20024;-73
2022/07/22 06:22:45;;;;;;;8.52;3.72;;;28.50;66.60;;;;;;5048094;28;20033;-73
2022/07/22 06:25:11;;;;;;;10.15;3.20;;;28.70;66.40;;;;;;5039110;28;20044;-72
2022/07/22 06:27:38;;;;;;;8.30;3.67;;;;;;;;;;5047824;28;20170;-72
2022/07/22 06:30:06;;;;;;;13.23;4.57;;;;;;;;;;5036762;28;20028;-73
2022/07/22 06:32:33;;;;;;;7.88;3.40;;;;;;;;;;5034813;28;20059;-72
2022/07/22 06:34:59;;;;;;;15.00;4.15;;;29.00;90.70;;;;;;5041286;28;20021;-73
2022/07/22 06:37:26;;;;;;;10.25;4.05;;;;;;;;;;5039547;28;20035;-72
2022/07/22 06:39:53;;;;;;;19.98;4.75;;;;;;;;;;5051946;28;20111;-72
2022/07/22 06:42:22;;;;;;;11.77;4.20;;;29.40;93.50;;;;;;5037593;28;20087;-73
2022/07/22 06:44:48;;;;;;;10.30;5.15;;;29.80;91.60;;;;;;5053864;28;20435;-71
2022/07/22 06:47:35;;;;;;;11.15;4.10;;;29.80;72.40;;;;;;5052083;28;20526;-72
2022/07/22 06:50:05;;;;;;;10.55;4.18;;;29.90;65.90;;;;;;5041931;28;20393;-71
2022/07/22 06:52:31;;;;;;;15.45;5.15;;;30.10;66.30;;;;;;5051665;28;20037;-72
2022/07/22 06:54:59;;;;;;;19.35;5.05;;;30.00;66.20;;;;;;5036519;28;20021;-73
2022/07/22 06:57:29;;;;;;;11.25;4.85;;;29.80;66.50;;;;;;5040530;28;20031;-74
2022/07/22 06:59:55;;;;;;;9.75;4.32;;;30.20;66.90;;;;;;5032239;28;20024;-73
2022/07/22 07:02:24;;;;;;;9.00;4.57;;;;;;;;;;5023446;28;20128;-72
2022/07/22 07:04:50;;;;;;;15.20;4.45;;;30.30;65.70;;;;;;5052787;28;20029;-72
2022/07/22 07:07:16;;;;;;;6.75;4.30;;;30.40;66.00;;;;;;5035398;28;20028;-72
2022/07/22 07:09:50;;;;;;;7.43;3.88;;;30.40;65.80;;;;;;5050763;28;20024;-73
2022/07/22 07:12:33;;;;;;;12.07;4.20;;;30.60;66.10;;;;;;5032349;28;20030;-72
2022/07/22 07:15:09;;;;;;;7.60;4.13;;;;;;;;;;5060613;28;20048;-69
2022/07/22 07:17:35;;;;;;;12.85;4.05;;;30.80;64.50;;;;;;5033433;28;20392;-72
2022/07/22 07:20:06;;;;;;;8.98;4.40;;;30.60;64.60;;;;;;5030052;28;20111;-73
2022/07/22 07:22:33;;;;;;;10.20;4.13;;;30.90;65.40;;;;;;5033092;28;20078;-73
2022/07/22 07:25:06;;;;;;;13.18;4.93;;;31.00;71.10;;;;;;5043074;28;20020;-73
2022/07/22 07:27:32;;;;;;;14.38;4.97;;;31.00;64.30;;;;;;5021297;28;20036;-74
2022/07/22 07:30:00;;;;;;;9.68;4.43;;;;;;;;;;5034120;28;20049;-72
2022/07/22 07:32:26;;;;;;;6.47;3.67;;;31.80;64.30;;;;;;5034294;28;20045;-74
2022/07/22 07:34:52;;;;;;;11.93;4.40;;;31.80;63.00;;;;;;5032418;28;20462;-72
2022/07/22 07:37:18;;;;;;;8.40;4.30;;;31.60;63.60;;;;;;5014502;28;20052;-71
2022/07/22 07:39:43;;;;;;;11.32;4.70;;;31.60;63.80;;;;;;5051184;28;20071;-72
2022/07/22 07:42:09;;;;;;;10.73;4.57;;;31.70;64.30;;;;;;5036619;28;20035;-73
2022/07/22 07:44:36;;;;;;;13.27;4.65;;;31.90;69.60;;;;;;5034710;28;20021;-73
2022/07/22 07:47:03;;;;;;;8.07;3.90;;;31.90;67.00;;;;;;5035372;28;20028;-70
2022/07/22 07:49:29;;;;;;;8.05;4.15;;;32.00;67.90;;;;;;5035133;28;20028;-73
2022/07/22 07:51:56;;;;;;;8.50;4.30;;;;;;;;;;5032781;28;20044;-71
2022/07/22 07:54:23;;;;;;;8.38;4.53;;;;;;;;;;5050400;28;20031;-71
2022/07/22 07:56:51;;;;;;;14.45;4.32;;;;;;;;;;5034868;28;20075;-73
2022/07/22 07:59:18;;;;;;;6.47;4.20;;;32.40;61.40;;;;;;5034519;28;20076;-70
2022/07/22 08:01:45;;;;;;;9.55;3.85;;;32.30;62.10;;;;;;5037374;28;20060;-70
2022/07/22 08:04:12;;;;;;;11.02;4.78;;;;;;;;;;5038132;28;20033;-73
2022/07/22 08:06:38;;;;;;;9.63;4.20;;;32.60;84.10;;;;;;5035699;28;20029;-73
2022/07/22 08:09:06;;;;;;;8.70;4.10;;;;;;;;;;5031811;28;20032;-73
2022/07/22 08:11:35;;;;;;;9.95;4.15;;;;;;;;;;5031270;28;20049;-72
2022/07/22 08:14:25;;;;;;;12.68;4.82;;;;;;;;;;4995083;28;20405;-73
2022/07/22 08:17:06;;;;;;;10.52;3.90;;;;;;;;;;4976282;28;20128;-73
2022/07/22 08:19:34;;;;;;;9.50;3.80;;;;;;;;;;4984594;28;20513;-71
2022/07/22 08:22:02;;;;;;;13.75;3.80;;;;;;;;;;4972869;28;20054;-73
2022/07/22 08:24:33;;;;;;;7.10;4.03;;;;;;;;;;4974502;28;20073;-73
2022/07/22 08:27:02;;;;;;;7.30;3.73;;;;;;;;;;4977900;28;20089;-71
2022/07/22 08:29:29;;;;;;;9.30;4.25;;;;;;;;;;4973238;28;20038;-72
2022/07/22 08:31:55;;;;;;;10.13;3.88;;;;;;;;;;4999298;28;20050;-70
2022/07/22 08:34:22;;;;;;;9.57;4.60;;;;;;;;;;4988755;28;20027;-71
2022/07/22 08:36:48;;;;;;;10.63;4.63;;;33.10;90.60;;;;;;4971252;28;20094;-70
2022/07/22 08:39:14;;;;;;;9.65;4.00;;;;;;;;;;4988428;28;20044;-71
2022/07/22 08:41:40;;;;;;;6.75;4.05;;;33.50;60.90;;;;;;4988484;28;20034;-70
2022/07/22 08:44:08;;;;;;;9.15;4.18;;;;;;;;;;4977423;28;20052;-65
2022/07/22 08:46:35;;;;;;;9.20;4.15;;;33.90;60.20;;;;;;4980024;28;20028;-70
2022/07/22 08:49:19;;;;;;;8.55;4.05;;;34.00;60.40;;;;;;4990855;28;20401;-71
2022/07/22 08:52:20;;;;;;;;;;;33.90;58.80;;;;;;4973598;28;20050;-64
2022/07/22 08:54:48;;;;;;;11.00;4.97;;;33.80;59.10;;;;;;4984258;28;19910;-70
2022/07/22 08:57:18;;;;;;;8.95;3.88;;;34.40;60.30;;;;;;4953317;28;20089;-70
2022/07/22 08:59:54;;;;;;;11.07;4.82;;;33.70;58.00;;;;;;4969924;28;20031;-71
2022/07/22 09:02:22;;;;;;;8.70;3.75;;;33.60;58.00;;;;;;4953369;28;20054;-69
2022/07/22 09:04:56;;;;;;;10.70;4.13;;;33.50;79.00;;;;;;4970767;28;20039;-70
2022/07/22 09:07:37;;;;;;;24.92;5.78;;;33.90;78.30;;;;;;4970008;28;20039;-71
2022/07/22 09:10:32;;;;;;;13.55;4.68;;;33.80;79.50;;;;;;4968533;28;20037;-69
2022/07/22 09:13:07;;;;;;;9.32;4.30;;;33.90;59.30;;;;;;4964692;28;20035;-64
2022/07/22 09:16:02;;;;;;;11.98;3.90;;;34.10;59.40;;;;;;4950408;28;20082;-68
2022/07/22 09:18:46;;;;;;;16.95;4.68;;;;;;;;;;4969341;28;20389;-73
2022/07/22 09:21:29;;;;;;;5.63;3.83;;;33.90;57.00;;;;;;4978271;28;20038;-71
2022/07/22 09:24:31;;;;;;;11.95;4.22;;;34.30;58.10;;;;;;4973638;28;20480;-70
2022/07/22 09:27:07;;;;;;;6.70;3.70;;;34.40;56.70;;;;;;5023240;28;20504;-71
2022/07/22 09:29:50;;;;;;;11.90;4.13;;;34.10;57.20;;;;;;5052875;28;20029;-68
2022/07/22 09:32:17;;;;;;;9.73;3.60;;;34.20;57.10;;;;;;5041916;28;20056;-70
2022/07/22 09:35:07;;;;;;;22.27;3.60;;;34.30;58.30;;;;;;5051090;28;20063;-70
2022/07/22 09:37:49;;;;;;;7.97;4.18;;;34.90;75.30;;;;;;5037340;28;20032;-64
2022/07/22 09:40:18;;;;;;;6.82;3.60;;;34.80;74.40;;;;;;5029513;28;20583;-67
2022/07/22 09:42:49;;;;;;;9.68;4.15;;;34.90;78.00;;;;;;5010607;28;20026;-72
2022/07/22 09:45:16;;;;;;;8.77;4.03;;;34.70;75.10;;;;;;5036289;28;20037;-65
2022/07/22 09:47:43;;;;;;;9.65;4.25;;;;;;;;;;5013291;28;20463;-72
2022/07/22 09:50:45;;;;;;;7.57;3.63;;;;;;;;;;4965552;28;20044;-71
2022/07/22 09:53:34;;;;;;;8.63;3.33;;;35.10;52.60;;;;;;4912004;29;20032;-71
2022/07/22 09:56:09;;;;;;;6.45;2.88;;;35.00;53.10;;;;;;4896380;29;20165;-72
2022/07/22 09:58:37;;;;;;;8.90;3.83;;;35.40;53.50;;;;;;4896498;29;20048;-72
2022/07/22 10:01:10;;;;;;;5.35;3.15;;;35.50;57.30;;;;;;4895785;29;20027;-69
2022/07/22 10:03:40;;;;;;;8.07;3.25;;;35.50;55.30;;;;;;4912485;29;20055;-71
2022/07/22 10:06:07;;;;;;;5.93;3.63;;;35.30;63.20;;;;;;4896550;29;20127;-70
2022/07/22 10:08:35;;;;;;;8.00;3.55;;;35.40;58.10;;;;;;4911173;29;20032;-71
2022/07/22 10:11:06;;;;;;;11.35;3.45;;;35.30;56.10;;;;;;4910967;29;20138;-72
2022/07/22 10:13:34;;;;;;;16.20;3.58;;;35.30;57.60;;;;;;4912162;29;20024;-72
2022/07/22 10:16:03;;;;;;;8.68;3.72;;;35.40;58.40;;;;;;4912765;29;20036;-70
2022/07/22 10:18:30;;;;;;;9.73;3.78;;;35.40;61.70;;;;;;4905460;29;20120;-72
2022/07/22 10:21:03;;;;;;;4.68;2.97;;;35.40;65.10;;;;;;4914580;29;20447;-71
2022/07/22 10:23:30;;;;;;;5.90;3.30;;;;;;;;;;4913058;29;20036;-72
2022/07/22 10:26:00;;;;;;;8.40;2.95;;;;;;;;;;4971304;28;20114;-70
2022/07/22 10:28:33;;;;;;;13.52;3.65;;;35.80;55.40;;;;;;4956033;28;20074;-71
2022/07/22 10:31:23;;;;;;;5.60;2.90;;;35.70;52.00;;;;;;5026529;28;20040;-72
2022/07/22 10:33:54;;;;;;;7.60;3.35;;;35.50;55.40;;;;;;5047025;28;20475;-70
2022/07/22 10:36:35;;;;;;;6.85;3.42;;;35.70;55.90;;;;;;5040045;28;20021;-72
2022/07/22 10:39:04;;;;;;;4.05;2.47;;;35.00;50.40;;;;;;5042298;28;20025;-71
2022/07/22 10:41:35;;;;;;;5.90;2.75;;;34.90;50.90;;;;;;5054627;28;20033;-71
2022/07/22 10:44:01;;;;;;;7.43;3.40;;;35.30;50.70;;;;;;5054320;28;20102;-71
2022/07/22 10:46:49;;;;;;;8.32;2.60;;;35.00;50.20;;;;;;5054075;28;20340;-68
2022/07/22 10:49:16;;;;;;;9.23;3.10;;;35.50;50.40;;;;;;5053936;28;20060;-71
2022/07/22 10:52:08;;;;;;;7.70;2.92;;;35.40;49.50;;;;;;5054024;28;20475;-71
2022/07/22 10:55:12;;;;;;;6.07;2.95;;;35.40;49.70;;;;;;5054359;28;20017;-71
2022/07/22 10:57:38;;;;;;;6.05;3.40;;;35.60;50.80;;;;;;5053734;28;20021;-71
2022/07/22 11:00:05;;;;;;;4.65;2.90;;;35.50;49.90;;;;;;5053741;28;20372;-71
2022/07/22 11:02:33;;;;;;;11.32;3.65;;;35.60;50.50;;;;;;5053665;28;20113;-71
2022/07/22 11:04:59;;;;;;;8.43;2.90;;;35.50;50.20;;;;;;5053899;28;20063;-71
2022/07/22 11:07:27;;;;;;;7.13;3.03;;;35.50;49.90;;;;;;5054331;28;20029;-71
2022/07/22 11:09:53;;;;;;;6.13;3.22;;;35.50;50.40;;;;;;5054060;28;20078;-71
2022/07/22 11:12:19;;;;;;;8.00;3.03;;;35.80;50.40;;;;;;5053625;28;20471;-70
2022/07/22 11:14:45;;;;;;;6.68;2.67;;;35.50;50.00;;;;;;5053711;28;20032;-70
2022/07/22 11:17:15;;;;;;;6.65;2.88;;;35.70;50.70;;;;;;5053466;28;20040;-71
2022/07/22 11:19:41;;;;;;;6.33;2.93;;;35.60;50.70;;;;;;5053869;28;20098;-71
2022/07/22 11:22:09;;;;;;;6.63;3.40;;;35.70;50.10;;;;;;5053391;28;20319;-67
2022/07/22 11:24:37;;;;;;;5.63;2.65;;;35.80;50.30;;;;;;5054068;28;20029;-70
2022/07/22 11:27:04;;;;;;;8.30;3.13;;;35.50;49.00;;;;;;5053578;28;20032;-64
2022/07/22 11:29:35;;;;;;;6.80;2.50;;;35.70;50.00;;;;;;5053202;28;20349;-70
2022/07/22 11:32:05;;;;;;;5.15;2.92;;;35.50;48.80;;;;;;5053359;28;20541;-70
2022/07/22 11:34:31;;;;;;;4.90;2.50;;;35.30;49.30;;;;;;5053580;28;20459;-70
2022/07/22 11:36:58;;;;;;;11.15;3.45;;;35.50;49.50;;;;;;5053010;28;20083;-64
2022/07/22 11:39:27;;;;;;;5.78;2.85;;;35.50;49.70;;;;;;5053183;28;20075;-69
2022/07/22 11:41:55;;;;;;;4.30;2.67;;;35.50;50.70;;;;;;5053653;28;20029;-64
2022/07/22 11:44:27;;;;;;;7.20;3.15;;;35.40;49.10;;;;;;5052376;28;20032;-69
2022/07/22 11:46:58;;;;;;;4.15;3.03;;;35.20;50.00;;;;;;5053149;28;20425;-69
2022/07/22 11:49:25;;;;;;;5.32;2.88;;;35.10;49.40;;;;;;5053403;28;20049;-70
2022/07/22 11:51:51;;;;;;;4.05;2.70;;;35.30;50.50;;;;;;5053240;28;20487;-71
2022/07/22 11:54:17;;;;;;;7.07;3.33;;;35.50;49.60;;;;;;5035528;28;20126;-69
2022/07/22 11:56:43;;;;;;;11.27;4.13;;;35.70;49.50;;;;;;5053032;28;20368;-69
2022/07/22 11:59:13;;;;;;;11.15;2.70;;;35.50;48.60;;;;;;5052625;28;20021;-71
2022/07/22 12:01:40;;;;;;;6.10;3.15;;;35.60;49.20;;;;;;5052670;28;20037;-71
2022/07/22 12:04:10;;;;;;;6.55;3.25;;;35.60;49.00;;;;;;5053009;28;20084;-71
2022/07/22 12:06:38;;;;;;;5.50;2.95;;;35.80;49.50;;;;;;5051411;28;20075;-70
2022/07/22 12:09:06;;;;;;;6.30;2.95;;;35.70;49.10;;;;;;5052090;28;20092;-70
2022/07/22 12:11:32;;;;;;;5.22;3.28;;;35.50;48.70;;;;;;5052765;28;20037;-71
2022/07/22 12:14:08;;;;;;;11.63;3.15;;;35.60;48.60;;;;;;5052831;28;20406;-70
2022/07/22 12:16:34;;;;;;;6.53;3.17;;;35.70;49.10;;;;;;5053075;28;20033;-71
2022/07/22 12:19:07;;;;;;;4.55;3.03;;;35.70;49.10;;;;;;5052903;28;20043;-71
2022/07/22 12:21:51;;;;;;;7.35;2.65;;;35.80;48.80;;;;;;5052938;28;20032;-70
2022/07/22 12:24:30;;;;;;;8.50;3.55;;;35.50;48.00;;;;;;5053285;28;20417;-71
2022/07/22 12:26:59;;;;;;;4.35;2.83;;;35.60;47.50;;;;;;5052906;28;20033;-70
2022/07/22 12:29:51;;;;;;;4.30;2.83;;;35.50;47.40;;;;;;5052803;28;20021;-71
2022/07/22 12:32:18;;;;;;;5.30;3.20;;;35.70;48.90;;;;;;5047901;28;20064;-71
2022/07/22 12:34:57;;;;;;;6.22;3.13;;;35.80;48.00;;;;;;5052446;28;20052;-71
2022/07/22 12:37:25;;;;;;;3.85;2.88;;;35.80;47.10;;;;;;5052051;28;20382;-71
2022/07/22 12:40:16;;;;;;;5.43;2.75;;;35.70;46.50;;;;;;5052632;28;20020;-70
2022/07/22 12:42:44;;;;;;;11.27;2.78;;;;;;;;;;5050819;28;20036;-70
2022/07/22 12:45:21;;;;;;;16.70;3.58;;;36.30;56.10;;;;;;5051694;28;20096;-71
2022/07/22 12:47:58;;;;;;;7.03;2.67;;;;;;;;;;5051917;28;20032;-71
2022/07/22 12:50:37;;;;;;;5.93;3.17;;;36.10;48.90;;;;;;5052596;28;20032;-71
2022/07/22 12:53:05;;;;;;;4.85;2.95;;;36.20;47.80;;;;;;5052302;28;20040;-71
2022/07/22 12:55:33;;;;;;;4.10;2.63;;;36.30;44.90;;;;;;5051115;28;20020;-71
2022/07/22 12:57:59;;;;;;;6.57;3.65;;;36.20;45.80;;;;;;5051581;28;20025;-70
2022/07/22 13:00:28;;;;;;;6.78;2.95;;;36.10;45.70;;;;;;5052114;28;20056;-71
2022/07/22 13:02:55;;;;;;;7.30;2.92;;;36.10;45.50;;;;;;5051941;28;20056;-71
2022/07/22 13:05:22;;;;;;;8.68;3.72;;;36.00;45.80;;;;;;5052148;28;20020;-70
2022/07/22 13:07:48;;;;;;;5.60;2.97;;;36.20;46.20;;;;;;5051758;28;20075;-70
2022/07/22 13:10:14;;;;;;;6.70;3.08;;;36.20;46.20;;;;;;5050085;28;20024;-72
2022/07/22 13:12:41;;;;;;;9.63;3.15;;;36.20;45.60;;;;;;5051194;28;20041;-70